Time;durP1;ratioP1;P1;durP2;ratioP2;P2;SDS_P1;SDS_P2;PMS_P1;PMS_P2;Temp;Humidity;BMP_temperature;BMP_pressure;BME280_temperature;BME280_humidity;BME280_pressure;Samples;Min_cycle;Max_cycle;Signal;HPM_P1;HPM_P2
2021/04/26 06:31:23;;;;;;;2.72;2.13;;;;;;;;;;10542647;28;20016;-86
2021/04/26 06:37:03;;;;;;;2.80;2.40;;;;;;;;;;10372142;28;20400;-87
2021/04/26 06:59:21;;;;;;;3.40;2.37;;;;;;;;;;10544537;28;20044;-84
2021/04/26 07:10:29;;;;;;;8.85;2.13;;;;;;;;;;10382888;28;20026;-88
2021/04/26 07:15:31;;;;;;;5.72;2.30;;;;;;;;;;10368079;28;20030;-87
2021/04/26 07:20:41;;;;;;;5.32;2.33;;;;;;;;;;10403386;28;20438;-87
2021/04/26 07:37:19;;;;;;;6.25;2.50;;;;;;;;;;10435722;28;20022;-85
2021/04/26 07:42:20;;;;;;;2.92;2.05;;;;;;;;;;10336300;28;20036;-85
2021/04/26 07:47:39;;;;;;;4.60;2.42;;;;;;;;;;10317985;28;20077;-85
2021/04/26 07:52:59;;;;;;;3.80;2.28;;;;;;;;;;10362156;28;20105;-85
2021/04/26 07:58:16;;;;;;;4.40;2.20;;;;;;;;;;10362523;28;20059;-84
2021/04/26 08:03:21;;;;;;;3.92;2.13;;;;;;;;;;10367091;28;20046;-84
2021/04/26 08:08:23;;;;;;;4.72;2.10;;;;;;;;;;10355301;28;20034;-85
2021/04/26 08:13:25;;;;;;;4.82;2.20;;;;;;;;;;10506966;28;20036;-84
2021/04/26 08:18:26;;;;;;;4.05;2.10;;;;;;;;;;10499847;28;20024;-86
2021/04/26 08:23:27;;;;;;;6.45;2.17;;;;;;;;;;10490956;28;20043;-83
2021/04/26 08:28:31;;;;;;;4.03;1.90;;;;;;;;;;10496410;28;20017;-83
2021/04/26 08:33:38;;;;;;;3.72;1.90;;;;;;;;;;10504430;28;20032;-84
2021/04/26 08:38:40;;;;;;;3.25;1.70;;;;;;;;;;10505316;28;20088;-84
2021/04/26 08:43:42;;;;;;;4.05;2.05;;;;;;;;;;10500158;28;20031;-85
2021/04/26 08:48:43;;;;;;;2.70;1.50;;;;;;;;;;10500706;28;20032;-84
2021/04/26 08:53:44;;;;;;;2.53;1.67;;;;;;;;;;10502311;28;20047;-84
2021/04/26 08:58:48;;;;;;;2.92;2.20;;;;;;;;;;10501402;28;20035;-84
2021/04/26 09:03:49;;;;;;;3.55;2.30;;;;;;;;;;10503335;28;20087;-83
2021/04/26 09:09:17;;;;;;;2.63;1.83;;;;;;;;;;10510692;28;20059;-84
2021/04/26 09:14:34;;;;;;;2.45;1.92;;;;;;;;;;10463235;28;20036;-84
2021/04/26 09:19:38;;;;;;;3.25;2.10;;;;;;;;;;10496044;28;20036;-84
2021/04/26 09:25:04;;;;;;;;;;;;;;;;;;;;;
2021/04/26 09:30:08;;;;;;;3.10;2.05;;;;;;;;;;10514448;28;20020;-84
2021/04/26 09:35:12;;;;;;;1.90;1.52;;;;;;;;;;10495980;28;20089;-84
2021/04/26 09:40:15;;;;;;;3.63;2.53;;;;;;;;;;10479852;28;20055;-84
2021/04/26 09:45:31;;;;;;;2.03;1.80;;;;;;;;;;10497615;28;20031;-84
2021/04/26 09:50:54;;;;;;;3.10;2.05;;;;;;;;;;10510180;28;20039;-82
2021/04/26 09:56:50;;;;;;;3.05;1.65;;;;;;;;;;10501001;28;20033;-84
2021/04/26 10:01:51;;;;;;;2.95;2.03;;;;;;;;;;10288609;28;20122;-86
2021/04/26 10:06:52;;;;;;;3.10;1.02;;;;;;;;;;10327760;28;20048;-83
2021/04/26 10:11:54;;;;;;;3.92;1.13;;;;;;;;;;10495888;28;20394;-83
2021/04/26 10:17:06;;;;;;;2.88;1.33;;;;;;;;;;10515429;28;20100;-83
2021/04/26 10:22:07;;;;;;;3.35;1.10;;;;;;;;;;10513398;28;20033;-82
2021/04/26 10:27:08;;;;;;;5.15;1.35;;;;;;;;;;10494473;28;20025;-83
2021/04/26 10:32:13;;;;;;;2.33;1.73;;;;;;;;;;10495802;28;20390;-83
2021/04/26 10:37:17;;;;;;;3.05;1.60;;;;;;;;;;10497616;28;20474;-83
2021/04/26 10:42:29;;;;;;;1.48;1.27;;;;;;;;;;10503874;28;20478;-82
2021/04/26 10:47:35;;;;;;;3.38;1.25;;;;;;;;;;10509349;28;20029;-82
2021/04/26 10:52:37;;;;;;;2.83;1.42;;;;;;;;;;10528655;28;20035;-84
2021/04/26 10:57:41;;;;;;;5.00;2.13;;;;;;;;;;10524591;28;20028;-84
2021/04/26 11:02:42;;;;;;;4.13;2.17;;;;;;;;;;10506131;28;20021;-82
2021/04/26 11:07:45;;;;;;;4.40;2.30;;;;;;;;;;10503756;28;20450;-83
2021/04/26 11:12:46;;;;;;;3.05;1.55;;;;;;;;;;10519976;28;20520;-85
2021/04/26 11:17:48;;;;;;;2.00;1.23;;;;;;;;;;10503350;28;20040;-83
2021/04/26 11:22:53;;;;;;;1.83;1.10;;;;;;;;;;10520550;28;20028;-83
2021/04/26 11:27:58;;;;;;;2.38;1.80;;;;;;;;;;10518284;28;20032;-83
2021/04/26 11:33:01;;;;;;;2.03;1.45;;;;;;;;;;10499688;28;20020;-83
2021/04/26 11:38:02;;;;;;;3.60;1.55;;;;;;;;;;10500821;28;20486;-84
2021/04/26 11:43:05;;;;;;;2.20;1.55;;;;;;;;;;10501708;28;20510;-83
2021/04/26 11:48:19;;;;;;;4.07;1.90;;;;;;;;;;10518786;28;20035;-83
2021/04/26 11:53:27;;;;;;;2.97;1.23;;;;;;;;;;10502473;28;20090;-83
2021/04/26 11:58:28;;;;;;;4.40;1.75;;;;;;;;;;10501867;28;20013;-83
2021/04/26 12:03:29;;;;;;;2.50;1.38;;;;;;;;;;10492898;28;20028;-83
2021/04/26 12:08:43;;;;;;;2.83;1.65;;;;;;;;;;10498079;28;20056;-84
2021/04/26 12:13:44;;;;;;;2.13;1.65;;;;;;;;;;10500071;28;20031;-83
2021/04/26 12:18:57;;;;;;;2.88;1.75;;;;;;;;;;10504044;28;20025;-82
2021/04/26 12:23:58;;;;;;;3.55;2.10;;;;;;;;;;10501721;28;20394;-83
2021/04/26 12:28:59;;;;;;;7.50;1.85;;;;;;;;;;10518805;28;20084;-82
2021/04/26 12:34:07;;;;;;;2.78;1.40;;;;;;;;;;10498231;28;20040;-83
2021/04/26 12:39:13;;;;;;;2.53;1.90;;;;;;;;;;10496692;28;20027;-82
2021/04/26 12:44:24;;;;;;;3.78;2.20;;;;;;;;;;10499511;28;20036;-83
2021/04/26 12:49:25;;;;;;;5.20;2.30;;;;;;;;;;10517154;28;20085;-82
2021/04/26 12:54:28;;;;;;;3.95;1.63;;;;;;;;;;10497997;28;20051;-86
2021/04/26 13:00:09;;;;;;;2.95;2.38;;;;;;;;;;10495770;28;20021;-87
2021/04/26 13:05:17;;;;;;;1.85;1.33;;;;;;;;;;10467862;28;20048;-88
2021/04/26 13:10:31;;;;;;;;;;;;;;;;;;;;;
2021/04/26 13:26:52;;;;;;;3.45;1.38;;;;;;;;;;10431134;28;20037;-88
2021/04/26 13:32:24;;;;;;;2.17;1.58;;;;;;;;;;10399299;28;20049;-86
2021/04/26 13:43:09;;;;;;;2.95;2.58;;;;;;;;;;10462148;28;20039;-86
2021/04/26 13:48:35;;;;;;;3.58;2.40;;;;;;;;;;10419942;28;20017;-86
2021/04/26 13:53:36;;;;;;;4.63;3.10;;;;;;;;;;10425199;28;20053;-85
2021/04/26 13:58:45;;;;;;;3.47;2.35;;;;;;;;;;10428212;28;20029;-86
2021/04/26 14:09:41;;;;;;;3.92;1.60;;;;;;;;;;10441685;28;20022;-85
2021/04/26 14:15:07;;;;;;;3.92;1.50;;;;;;;;;;10425031;28;20037;-86
2021/04/26 14:20:26;;;;;;;2.92;1.50;;;;;;;;;;10423123;28;20041;-84
2021/04/26 14:26:06;;;;;;;2.72;1.58;;;;;;;;;;10429333;28;20034;-85
2021/04/26 14:31:38;;;;;;;3.58;3.28;;;;;;;;;;10277253;29;20043;-88
2021/04/26 14:37:18;;;;;;;3.05;1.42;;;;;;;;;;10160046;29;20041;-87
2021/04/26 14:42:20;;;;;;;;;;;;;;;;;;10405352;28;20113;-86
2021/04/26 14:47:55;;;;;;;2.90;2.30;;;;;;;;;;10445308;28;19976;-86
2021/04/26 14:53:19;;;;;;;3.85;3.00;;;;;;;;;;10419819;28;20080;-87
2021/04/26 15:04:55;;;;;;;;;;;;;;;;;;;;;
2021/04/26 15:10:36;;;;;;;2.13;1.85;;;;;;;;;;10161732;29;20040;-86
2021/04/26 15:21:16;;;;;;;3.95;1.90;;;;;;;;;;10258710;28;20030;-83
2021/04/26 15:26:17;;;;;;;5.53;2.50;;;;;;;;;;10402678;28;20044;-82
2021/04/26 15:31:18;;;;;;;2.35;1.83;;;;;;;;;;10418678;28;20052;-83
2021/04/26 15:36:19;;;;;;;3.92;2.10;;;;;;;;;;10437555;28;20053;-82
2021/04/26 15:41:20;;;;;;;4.15;3.38;;;;;;;;;;10434337;28;20040;-82
2021/04/26 15:46:21;;;;;;;2.83;1.80;;;;;;;;;;10425061;28;20048;-83
2021/04/26 15:51:22;;;;;;;5.13;3.63;;;;;;;;;;10420061;28;20053;-84
2021/04/26 15:56:28;;;;;;;5.55;3.60;;;;;;;;;;10433991;28;20044;-84
2021/04/26 16:01:29;;;;;;;3.47;2.40;;;;;;;;;;10442904;28;20025;-82
2021/04/26 16:06:30;;;;;;;2.10;1.65;;;;;;;;;;10454155;28;20026;-80
2021/04/26 16:11:32;;;;;;;5.72;2.65;;;;;;;;;;10430472;28;20029;-82
2021/04/26 16:16:33;;;;;;;3.33;1.70;;;;;;;;;;10438044;28;20098;-82
2021/04/26 16:21:34;;;;;;;3.05;2.22;;;;;;;;;;10429876;23;20077;-84
2021/04/26 16:26:36;;;;;;;2.45;2.25;;;;;;;;;;10419946;28;20252;-85
2021/04/26 16:31:37;;;;;;;4.70;3.10;;;;;;;;;;10446193;28;20044;-84
2021/04/26 16:36:38;;;;;;;5.00;2.67;;;;;;;;;;10430205;28;20101;-85
2021/04/26 16:41:39;;;;;;;3.92;3.45;;;;;;;;;;10431663;28;20040;-86
2021/04/26 16:46:41;;;;;;;2.58;2.17;;;;;;;;;;10423462;28;20092;-84
2021/04/26 16:51:42;;;;;;;6.68;3.83;;;;;;;;;;10421251;28;20026;-86
2021/04/26 16:56:43;;;;;;;4.78;3.08;;;;;;;;;;10420437;28;20033;-85
2021/04/26 17:01:44;;;;;;;4.15;3.20;;;;;;;;;;10422609;28;20140;-85
2021/04/26 17:06:45;;;;;;;2.88;2.65;;;;;;;;;;10432558;28;20034;-85
2021/04/26 17:11:48;;;;;;;3.60;3.08;;;;;;;;;;10440349;28;20094;-84
2021/04/26 17:16:49;;;;;;;4.65;3.05;;;;;;;;;;10442746;28;20013;-85
2021/04/26 17:21:49;;;;;;;4.57;3.08;;;;;;;;;;10420878;28;20045;-85
2021/04/26 17:26:51;;;;;;;3.85;2.53;;;;;;;;;;10415207;28;20042;-84
2021/04/26 17:31:52;;;;;;;4.10;3.10;;;;;;;;;;10416239;28;20438;-84
2021/04/26 17:36:53;;;;;;;5.07;3.20;;;;;;;;;;10415365;28;20040;-84
2021/04/26 17:41:54;;;;;;;4.38;2.92;;;;;;;;;;10415917;28;20037;-85
2021/04/26 17:46:55;;;;;;;4.80;4.30;;;;;;;;;;10414167;28;20207;-84
2021/04/26 17:51:56;;;;;;;4.05;2.88;;;;;;;;;;10414736;28;20050;-85
2021/04/26 17:56:57;;;;;;;5.85;4.00;;;;;;;;;;10413460;28;20431;-86
2021/04/26 18:01:58;;;;;;;4.63;2.85;;;;;;;;;;10415273;28;20041;-84
2021/04/26 18:06:59;;;;;;;5.05;3.63;;;;;;;;;;10414149;28;20032;-85
2021/04/26 18:12:00;;;;;;;6.00;3.90;;;;;;;;;;10415558;28;20033;-85
2021/04/26 18:17:01;;;;;;;5.90;3.05;;;;;;;;;;10431954;28;20038;-86
2021/04/26 18:22:02;;;;;;;5.65;3.42;;;;;;;;;;10413595;28;20048;-86
2021/04/26 18:27:03;;;;;;;4.20;2.53;;;;;;;;;;10413657;28;20105;-85
2021/04/26 18:32:05;;;;;;;4.90;4.15;;;;;;;;;;10416241;28;20132;-85
2021/04/26 18:37:07;;;;;;;6.75;3.67;;;;;;;;;;10414820;28;20056;-85
2021/04/26 18:42:08;;;;;;;3.30;3.00;;;;;;;;;;10413513;28;20095;-86
2021/04/26 18:47:09;;;;;;;2.47;2.13;;;;;;;;;;10417440;28;20034;-85
2021/04/26 18:52:10;;;;;;;4.93;4.43;;;;;;;;;;10420357;28;20038;-85
2021/04/26 18:57:11;;;;;;;4.68;4.15;;;;;;;;;;10434015;28;20037;-83
2021/04/26 19:02:12;;;;;;;5.60;4.43;;;;;;;;;;10424532;28;20029;-84
2021/04/26 19:07:13;;;;;;;4.30;2.50;;;;;;;;;;10426592;28;20041;-84
2021/04/26 19:12:14;;;;;;;5.30;3.45;;;;;;;;;;10426904;28;20064;-83
2021/04/26 19:17:15;;;;;;;3.58;2.60;;;;;;;;;;10444182;28;20033;-83
2021/04/26 19:22:16;;;;;;;6.85;3.25;;;;;;;;;;10443518;28;20045;-84
2021/04/26 19:27:17;;;;;;;3.50;3.03;;;;;;;;;;10426210;28;20037;-84
2021/04/26 19:32:18;;;;;;;3.10;2.78;;;;;;;;;;10427477;28;20129;-84
2021/04/26 19:37:19;;;;;;;3.97;3.60;;;;;;;;;;10432070;28;20133;-83
2021/04/26 19:42:20;;;;;;;4.18;3.67;;;;;;;;;;10441192;28;20065;-81
2021/04/26 19:47:21;;;;;;;6.30;4.10;;;;;;;;;;10434388;28;20091;-84
2021/04/26 19:52:22;;;;;;;4.53;3.63;;;;;;;;;;10441705;28;20033;-84
2021/04/26 19:57:23;;;;;;;5.05;3.80;;;;;;;;;;10424932;28;20033;-84
2021/04/26 20:02:25;;;;;;;4.45;3.03;;;;;;;;;;10441417;28;20034;-84
2021/04/26 20:07:26;;;;;;;3.45;3.08;;;;;;;;;;10441508;28;20049;-84
2021/04/26 20:12:27;;;;;;;5.63;3.78;;;;;;;;;;10441510;28;20038;-83
2021/04/26 20:17:28;;;;;;;4.50;2.83;;;;;;;;;;10443764;28;20040;-86
